Time;durP1;ratioP1;P1;durP2;ratioP2;P2;SDS_P1;SDS_P2;PMS_P1;PMS_P2;Temp;Humidity;BMP_temperature;BMP_pressure;BME280_temperature;BME280_humidity;BME280_pressure;Samples;Min_cycle;Max_cycle;Signal;HPM_P1;HPM_P2
2021/04/29 00:01:40;;;;;;;7.80;5.93;;;;;;;10.98;45.15;100141.81;5138312;27;20027;-40
2021/04/29 00:04:06;;;;;;;7.93;6.40;;;;;;;10.98;45.28;100136.41;5138527;27;20352;-40
2021/04/29 00:06:31;;;;;;;8.57;6.03;;;;;;;10.96;45.55;100127.69;5137982;27;20019;-40
2021/04/29 00:08:57;;;;;;;10.82;6.45;;;;;;;11.02;45.27;100120.44;5137910;27;20268;-40
2021/04/29 00:11:22;;;;;;;8.48;6.10;;;;;;;10.93;46.12;100114.69;5137619;27;20057;-40
2021/04/29 00:13:47;;;;;;;9.80;6.03;;;;;;;10.94;45.94;100113.63;5137814;27;20039;-40
2021/04/29 00:16:13;;;;;;;8.87;5.90;;;;;;;10.92;45.95;100102.22;5137702;27;20062;-40
2021/04/29 00:18:38;;;;;;;10.20;5.90;;;;;;;10.92;46.56;100094.09;5137631;27;20027;-40
2021/04/29 00:21:04;;;;;;;7.77;5.50;;;;;;;10.92;46.38;100090.56;5137471;27;20323;-40
2021/04/29 00:23:29;;;;;;;7.40;5.57;;;;;;;10.88;47.04;100082.13;5137303;27;20022;-40
2021/04/29 00:25:55;;;;;;;7.55;5.75;;;;;;;10.82;46.28;100086.66;5137817;27;20417;-40
2021/04/29 00:28:21;;;;;;;8.35;6.07;;;;;;;10.70;46.43;100083.28;5137254;27;20075;-40
2021/04/29 00:30:48;;;;;;;8.40;5.72;;;;;;;10.60;46.94;100085.84;5137826;27;20083;-40
2021/04/29 00:33:13;;;;;;;9.82;6.60;;;;;;;10.52;47.27;100089.78;5137139;27;20027;-40
2021/04/29 00:35:38;;;;;;;9.17;6.33;;;;;;;10.51;47.25;100090.84;5137682;27;20049;-40
2021/04/29 00:38:04;;;;;;;8.57;7.03;;;;;;;10.39;47.41;100083.91;5137066;27;20112;-40
2021/04/29 00:40:29;;;;;;;8.85;6.25;;;;;;;10.42;47.97;100088.81;5136685;27;20031;-40
2021/04/29 00:42:54;;;;;;;9.87;6.93;;;;;;;10.37;47.68;100089.56;5137682;27;20027;-40
2021/04/29 00:45:20;;;;;;;9.37;5.67;;;;;;;10.37;48.02;100097.66;5137771;27;20027;-40
2021/04/29 00:47:48;;;;;;;7.23;5.83;;;;;;;10.20;48.49;100094.13;5137110;27;20037;-40
2021/04/29 00:50:15;;;;;;;11.65;6.72;;;;;;;10.04;48.57;100093.88;5136867;27;20248;-40
2021/04/29 00:52:40;;;;;;;8.10;6.35;;;;;;;10.02;48.78;100097.91;5136423;27;20037;-40
2021/04/29 00:55:07;;;;;;;8.57;6.50;;;;;;;10.05;48.78;100092.84;5137537;27;20098;-40
2021/04/29 00:57:33;;;;;;;9.00;6.32;;;;;;;10.11;48.76;100092.94;5136758;27;20023;-39
2021/04/29 01:00:01;;;;;;;8.65;5.60;;;;;;;10.02;49.11;100093.31;5136336;27;20487;-40
2021/04/29 01:02:28;;;;;;;7.78;5.93;;;;;;;9.99;48.88;100101.91;5136638;27;20092;-40
2021/04/29 01:05:05;;;;;;;9.88;6.00;;;;;;;10.11;48.82;100114.53;5137065;27;20114;-40
2021/04/29 01:07:35;;;;;;;7.50;6.25;;;;;;;10.14;48.18;100119.44;5137046;27;20023;-40
2021/04/29 01:10:12;;;;;;;9.70;6.15;;;;;;;10.09;49.14;100132.84;5136202;27;20027;-40
2021/04/29 01:12:40;;;;;;;9.82;6.32;;;;;;;10.13;48.58;100139.41;5136632;27;20422;-40
2021/04/29 01:15:06;;;;;;;8.10;6.18;;;;;;;10.11;48.93;100144.25;5136830;27;20030;-40
2021/04/29 01:17:35;;;;;;;9.05;6.38;;;;;;;10.06;49.24;100150.38;5136152;27;20020;-40
2021/04/29 01:20:21;;;;;;;8.90;6.43;;;;;;;9.99;49.61;100155.94;5136830;27;20054;-39
2021/04/29 01:23:07;;;;;;;8.30;6.75;;;;;;;9.97;49.78;100155.38;5136746;27;20034;-39
2021/04/29 01:25:35;;;;;;;7.32;6.28;;;;;;;9.92;49.57;100149.88;5136221;27;20037;-40
2021/04/29 01:28:00;;;;;;;9.30;6.43;;;;;;;9.87;50.14;100144.38;5136038;27;20023;-40
2021/04/29 01:30:27;;;;;;;8.35;6.75;;;;;;;9.77;50.75;100149.59;5136328;27;20421;-39
2021/04/29 01:32:53;;;;;;;8.30;6.63;;;;;;;9.79;50.19;100151.00;5136318;27;20042;-39
2021/04/29 01:35:19;;;;;;;8.48;6.65;;;;;;;9.82;50.72;100154.28;5135998;27;20030;-40
2021/04/29 01:37:47;;;;;;;9.07;7.00;;;;;;;9.85;50.14;100154.59;5136393;27;20367;-39
2021/04/29 01:40:13;;;;;;;8.27;6.47;;;;;;;9.87;50.60;100159.78;5136470;27;20030;-40
2021/04/29 01:42:39;;;;;;;9.93;6.00;;;;;;;9.80;50.11;100157.19;5135772;27;20019;-39
2021/04/29 01:45:05;;;;;;;8.70;6.45;;;;;;;9.78;50.70;100156.63;5136111;27;20099;-39
2021/04/29 01:47:33;;;;;;;;;;;;;;;9.90;48.89;100167.38;5135051;27;20027;-39
2021/04/29 01:49:59;;;;;;;7.53;5.95;;;;;;;9.81;50.91;100177.78;5136176;27;19954;-39
2021/04/29 01:52:25;;;;;;;8.65;6.10;;;;;;;9.77;50.76;100180.13;5134227;27;20046;-39
2021/04/29 01:54:51;;;;;;;9.93;7.00;;;;;;;9.77;50.86;100185.53;5136373;27;20031;-39
2021/04/29 01:57:20;;;;;;;8.57;6.93;;;;;;;9.72;50.58;100188.13;5135699;27;20094;-39
2021/04/29 01:59:45;;;;;;;9.52;6.90;;;;;;;9.72;50.64;100184.63;5135417;27;20023;-39
2021/04/29 02:02:10;;;;;;;8.33;6.20;;;;;;;9.72;50.26;100181.91;5135088;27;20026;-39
2021/04/29 02:04:36;;;;;;;8.93;6.33;;;;;;;9.70;51.25;100181.31;5135261;27;20441;-39
2021/04/29 02:07:01;;;;;;;7.60;5.87;;;;;;;9.65;51.91;100175.81;5135573;27;20463;-39
2021/04/29 02:09:26;;;;;;;7.97;5.90;;;;;;;9.69;51.29;100175.09;5135894;27;20088;-39
2021/04/29 02:11:55;;;;;;;9.10;6.03;;;;;;;9.67;51.36;100176.41;5135255;27;20026;-39
2021/04/29 02:14:27;;;;;;;8.38;6.43;;;;;;;9.63;52.17;100173.38;5134785;27;20521;-39
2021/04/29 02:16:56;;;;;;;11.77;6.70;;;;;;;9.61;52.25;100171.97;5135297;27;20031;-39
2021/04/29 02:19:24;;;;;;;8.75;6.88;;;;;;;9.53;53.34;100174.00;5135038;27;20331;-40
2021/04/29 02:21:50;;;;;;;8.23;6.47;;;;;;;9.44;53.95;100178.13;5135624;27;20535;-39
2021/04/29 02:24:17;;;;;;;9.23;6.80;;;;;;;9.35;54.83;100170.66;5134736;27;20034;-39
2021/04/29 02:26:43;;;;;;;8.70;7.18;;;;;;;9.40;55.16;100171.56;5134959;27;20542;-39
2021/04/29 02:29:09;;;;;;;11.65;6.88;;;;;;;9.32;55.15;100173.81;5134898;27;20031;-40
2021/04/29 02:31:36;;;;;;;9.80;6.82;;;;;;;9.33;55.64;100173.59;5134836;27;20057;-39
2021/04/29 02:34:06;;;;;;;8.68;6.75;;;;;;;9.32;55.23;100182.75;5134811;27;20054;-39
2021/04/29 02:36:32;;;;;;;8.52;7.30;;;;;;;9.27;55.38;100177.22;5135311;27;20023;-39
2021/04/29 02:38:57;;;;;;;;;;;;;;;9.43;53.73;100164.88;5134170;27;20455;-39
2021/04/29 02:41:24;;;;;;;9.00;7.68;;;;;;;9.35;55.83;100157.16;5134729;27;19907;-40
2021/04/29 02:43:50;;;;;;;10.93;6.55;;;;;;;9.35;56.25;100149.88;5135400;27;20019;-39
2021/04/29 02:46:16;;;;;;;10.07;7.45;;;;;;;9.36;55.45;100151.50;5134957;27;20079;-39
2021/04/29 02:48:41;;;;;;;8.35;6.70;;;;;;;9.38;55.83;100154.00;5134572;27;20023;-39
2021/04/29 02:51:08;;;;;;;8.73;6.68;;;;;;;9.39;55.34;100155.63;5134750;27;20519;-39
2021/04/29 02:53:34;;;;;;;;;;;;;;;9.48;53.88;100152.31;5135012;27;20035;-39
2021/04/29 02:55:59;;;;;;;12.45;7.30;;;;;;;9.35;56.83;100146.38;5134500;27;19908;-39
2021/04/29 02:58:25;;;;;;;11.43;7.68;;;;;;;9.26;56.98;100141.34;5132991;27;20027;-39
2021/04/29 03:00:53;;;;;;;9.23;7.77;;;;;;;9.26;57.41;100135.13;5134785;27;20068;-39
2021/04/29 03:03:19;;;;;;;10.75;7.45;;;;;;;9.24;57.72;100121.06;5133555;27;20272;-39
2021/04/29 03:05:44;;;;;;;9.33;6.97;;;;;;;9.27;57.07;100110.63;5134675;27;20038;-39
2021/04/29 03:08:10;;;;;;;9.67;7.77;;;;;;;9.25;57.58;100101.13;5135137;27;20114;-39
2021/04/29 03:10:36;;;;;;;12.10;6.80;;;;;;;9.27;57.77;100099.84;5134313;28;20016;-39
2021/04/29 03:13:03;;;;;;;9.45;7.18;;;;;;;9.24;57.63;100094.91;5134275;28;20068;-40
2021/04/29 03:15:28;;;;;;;;;;;;;;;9.32;56.13;100082.09;5134525;28;20461;-39
2021/04/29 03:17:53;;;;;;;9.05;7.60;;;;;;;9.19;58.67;100084.03;5134448;27;19911;-39
2021/04/29 03:20:19;;;;;;;10.67;7.00;;;;;;;9.15;58.80;100095.53;5133941;28;20107;-39
2021/04/29 03:22:44;;;;;;;10.70;7.70;;;;;;;9.13;58.30;100106.56;5134197;28;20310;-40
2021/04/29 03:25:10;;;;;;;11.50;7.23;;;;;;;9.15;58.25;100117.09;5134541;28;20019;-39
2021/04/29 03:27:36;;;;;;;9.40;7.88;;;;;;;9.20;59.10;100133.41;5134079;28;20038;-40
2021/04/29 03:30:02;;;;;;;12.60;7.83;;;;;;;9.22;58.50;100139.34;5133407;28;20035;-39
2021/04/29 03:32:27;;;;;;;;;;;;;;;9.32;55.86;100131.50;5134522;28;20027;-39
2021/04/29 03:34:53;;;;;;;11.57;7.00;;;;;;;9.25;58.14;100128.09;5133922;27;19908;-39
2021/04/29 03:37:18;;;;;;;8.93;7.43;;;;;;;9.21;58.17;100127.75;5134033;28;20771;-39
2021/04/29 03:39:44;;;;;;;9.03;6.87;;;;;;;9.29;58.23;100134.66;5134391;28;20027;-39
2021/04/29 03:42:10;;;;;;;11.07;8.80;;;;;;;9.23;58.62;100130.22;5134591;28;20416;-39
2021/04/29 03:44:38;;;;;;;11.15;8.05;;;;;;;9.15;59.04;100133.28;5134272;28;20023;-39
2021/04/29 03:47:04;;;;;;;11.98;8.05;;;;;;;9.14;58.87;100135.16;5133950;28;20046;-39
2021/04/29 03:49:29;;;;;;;11.55;7.85;;;;;;;9.16;58.97;100137.63;5134035;28;20064;-39
2021/04/29 03:51:55;;;;;;;10.93;7.18;;;;;;;9.18;58.23;100149.00;5133591;28;20027;-39
2021/04/29 03:54:20;;;;;;;9.80;7.53;;;;;;;9.20;58.70;100144.19;5134179;28;20106;-39
2021/04/29 03:56:46;;;;;;;11.77;8.27;;;;;;;9.19;58.35;100151.47;5134118;28;20455;-39
2021/04/29 03:59:12;;;;;;;9.15;7.85;;;;;;;9.13;59.05;100157.81;5134640;28;20027;-39
2021/04/29 04:01:37;;;;;;;10.02;7.38;;;;;;;9.21;58.46;100149.34;5133851;28;20031;-39
2021/04/29 04:04:03;;;;;;;8.83;7.90;;;;;;;9.17;59.48;100150.03;5133882;28;20383;-39
2021/04/29 04:06:28;;;;;;;9.17;7.63;;;;;;;9.13;59.12;100140.81;5134291;28;20269;-39
2021/04/29 04:08:53;;;;;;;10.93;7.90;;;;;;;9.08;60.03;100143.38;5134090;28;20351;-39
2021/04/29 04:11:19;;;;;;;12.30;8.30;;;;;;;9.12;59.53;100149.94;5134322;27;20027;-40
2021/04/29 04:13:44;;;;;;;10.57;8.20;;;;;;;9.08;60.40;100149.63;5133771;28;20149;-39
2021/04/29 04:16:12;;;;;;;9.37;8.27;;;;;;;9.10;60.05;100146.69;5135379;27;20038;-39
2021/04/29 04:18:38;;;;;;;8.95;7.97;;;;;;;9.09;60.95;100148.56;5137414;27;20034;-39
2021/04/29 04:21:04;;;;;;;10.52;8.07;;;;;;;9.10;60.94;100139.41;5137533;27;20055;-39
2021/04/29 04:23:29;;;;;;;9.48;7.90;;;;;;;9.12;60.49;100142.66;5137383;27;20119;-39
2021/04/29 04:25:54;;;;;;;12.57;7.80;;;;;;;9.14;60.92;100147.84;5137606;27;20034;-40
2021/04/29 04:28:20;;;;;;;10.73;8.17;;;;;;;9.17;62.70;100148.16;5137279;27;20031;-39
2021/04/29 04:30:45;;;;;;;10.87;8.20;;;;;;;9.08;63.22;100132.59;5137275;27;20027;-39
2021/04/29 04:33:10;;;;;;;16.17;9.17;;;;;;;9.13;63.52;100140.81;5136849;27;20031;-40
2021/04/29 04:35:36;;;;;;;10.37;8.40;;;;;;;9.14;63.63;100150.53;5137666;27;20030;-40
2021/04/29 04:38:01;;;;;;;12.30;9.53;;;;;;;9.14;64.03;100159.44;5136740;27;20058;-39
2021/04/29 04:40:26;;;;;;;11.10;8.50;;;;;;;9.16;64.29;100156.50;5136756;27;20106;-39
2021/04/29 04:42:52;;;;;;;13.27;8.97;;;;;;;9.17;64.80;100158.97;5137034;27;20031;-39
2021/04/29 04:45:17;;;;;;;13.63;9.37;;;;;;;9.13;65.94;100159.69;5137293;27;20023;-39
2021/04/29 04:47:43;;;;;;;9.93;8.77;;;;;;;9.16;66.69;100162.72;5136882;27;20332;-39
2021/04/29 04:50:09;;;;;;;11.77;9.43;;;;;;;9.12;66.92;100163.44;5136686;27;20475;-39
2021/04/29 04:52:35;;;;;;;13.07;9.55;;;;;;;9.11;67.52;100172.59;5136747;27;20466;-39
2021/04/29 04:55:00;;;;;;;10.60;8.93;;;;;;;9.19;67.57;100167.66;5136823;27;20023;-39
2021/04/29 04:57:25;;;;;;;11.73;8.77;;;;;;;9.20;67.42;100174.69;5137408;27;20031;-39
2021/04/29 04:59:51;;;;;;;12.17;9.30;;;;;;;9.23;67.38;100168.00;5136956;27;20052;-39
2021/04/29 05:02:16;;;;;;;10.77;9.10;;;;;;;9.24;67.62;100186.63;5136610;27;20474;-39
2021/04/29 05:04:41;;;;;;;11.33;9.50;;;;;;;9.27;68.03;100172.69;5137204;27;20062;-39
2021/04/29 05:07:09;;;;;;;13.90;9.97;;;;;;;9.30;67.92;100182.16;5136468;27;20111;-39
2021/04/29 05:09:34;;;;;;;16.13;9.60;;;;;;;9.28;68.17;100178.88;5136938;27;20034;-39
2021/04/29 05:12:00;;;;;;;11.57;9.77;;;;;;;9.32;68.49;100190.00;5136929;27;20447;-39
2021/04/29 05:14:27;;;;;;;11.23;8.97;;;;;;;9.28;68.88;100187.00;5135539;27;20057;-40
2021/04/29 05:16:52;;;;;;;10.68;9.05;;;;;;;9.32;69.23;100192.69;5135690;27;20046;-39
2021/04/29 05:19:17;;;;;;;11.43;10.23;;;;;;;9.32;69.17;100198.94;5136608;27;20019;-39
2021/04/29 05:21:43;;;;;;;12.07;9.70;;;;;;;9.35;69.72;100203.84;5136339;27;20138;-39
2021/04/29 05:24:08;;;;;;;13.23;9.93;;;;;;;9.40;69.31;100205.84;5136777;27;20023;-39
2021/04/29 05:26:34;;;;;;;12.85;10.13;;;;;;;9.43;69.30;100218.84;5136693;27;20034;-38
2021/04/29 05:28:59;;;;;;;14.63;11.00;;;;;;;9.44;69.32;100223.19;5136157;27;20106;-39
2021/04/29 05:31:25;;;;;;;14.30;10.87;;;;;;;9.42;69.19;100209.94;5136969;27;20029;-39
2021/04/29 05:33:50;;;;;;;14.80;10.47;;;;;;;9.45;69.67;100209.44;5136915;27;20031;-39
2021/04/29 05:36:15;;;;;;;14.00;10.97;;;;;;;9.47;70.01;100212.75;5136565;27;20030;-39
2021/04/29 05:38:41;;;;;;;13.27;11.27;;;;;;;9.46;69.23;100216.47;5135929;27;20030;-40
2021/04/29 05:41:06;;;;;;;15.13;11.00;;;;;;;9.48;69.89;100217.09;5136490;27;20023;-39
2021/04/29 05:43:32;;;;;;;15.20;11.53;;;;;;;9.46;69.98;100216.47;5135886;27;20165;-40
2021/04/29 05:45:57;;;;;;;15.68;12.38;;;;;;;9.47;69.54;100203.84;5136167;27;20079;-40
2021/04/29 05:48:22;;;;;;;17.03;13.30;;;;;;;9.38;70.92;100202.56;5136001;27;20106;-40
2021/04/29 05:50:48;;;;;;;16.17;12.57;;;;;;;9.48;69.90;100208.97;5135740;27;20058;-40
2021/04/29 05:53:13;;;;;;;16.40;12.03;;;;;;;9.51;70.28;100215.78;5135279;27;20134;-40
2021/04/29 05:55:38;;;;;;;13.53;12.07;;;;;;;9.58;69.71;100221.88;5136201;27;20156;-40
2021/04/29 05:58:04;;;;;;;15.30;12.27;;;;;;;9.65;69.88;100219.00;5135486;27;20378;-40
2021/04/29 06:00:29;;;;;;;14.20;11.90;;;;;;;9.69;69.83;100214.78;5135774;27;20023;-40
2021/04/29 06:02:55;;;;;;;14.90;12.37;;;;;;;9.76;69.33;100213.59;5135462;27;20026;-40
2021/04/29 06:05:24;;;;;;;17.52;12.13;;;;;;;9.85;68.90;100221.28;5135968;27;20108;-40
2021/04/29 06:07:57;;;;;;;14.73;12.25;;;;;;;9.95;69.04;100229.56;5135763;27;20027;-40
2021/04/29 06:10:23;;;;;;;15.38;12.20;;;;;;;9.99;68.49;100226.16;5136074;27;20035;-40
2021/04/29 06:12:49;;;;;;;14.77;12.18;;;;;;;9.94;68.76;100223.34;5136011;27;20031;-40
2021/04/29 06:15:15;;;;;;;13.38;12.00;;;;;;;10.02;67.92;100220.28;5135452;27;20071;-40
2021/04/29 06:17:40;;;;;;;17.08;13.02;;;;;;;10.06;68.92;100224.13;5135245;27;20053;-39
2021/04/29 06:20:06;;;;;;;15.57;12.23;;;;;;;10.09;68.00;100222.00;5135225;27;20053;-39
2021/04/29 06:22:31;;;;;;;;;;;;;;;10.22;65.87;100229.81;5135183;27;20019;-40
2021/04/29 06:24:57;;;;;;;14.97;12.00;;;;;;;9.99;68.18;100220.75;5135350;27;19915;-40
2021/04/29 06:27:22;;;;;;;14.30;12.70;;;;;;;9.88;69.13;100226.22;5135085;27;20380;-40
2021/04/29 06:29:47;;;;;;;16.87;12.60;;;;;;;9.95;68.00;100229.56;5135032;27;20027;-40
2021/04/29 06:32:13;;;;;;;15.30;13.53;;;;;;;9.94;68.69;100239.56;5134947;27;20067;-40
2021/04/29 06:34:39;;;;;;;14.73;12.77;;;;;;;9.97;68.62;100240.97;5133329;27;20039;-40
2021/04/29 06:37:04;;;;;;;16.95;12.70;;;;;;;9.97;68.51;100239.09;5135319;27;20031;-40
2021/04/29 06:39:30;;;;;;;16.25;13.90;;;;;;;9.95;68.89;100245.78;5133006;27;20440;-40
2021/04/29 06:41:56;;;;;;;14.80;13.07;;;;;;;9.94;68.57;100244.16;5134806;27;20455;-40
2021/04/29 06:44:21;;;;;;;15.88;13.98;;;;;;;9.80;69.44;100232.81;5135322;27;20107;-39
2021/04/29 06:46:47;;;;;;;17.23;14.65;;;;;;;9.81;69.05;100239.88;5134998;27;20113;-39
2021/04/29 06:49:12;;;;;;;14.85;12.95;;;;;;;9.81;69.41;100237.19;5134723;27;20066;-39
2021/04/29 06:51:37;;;;;;;16.23;14.43;;;;;;;9.79;69.18;100242.78;5135273;27;20375;-39
2021/04/29 06:54:03;;;;;;;16.90;14.27;;;;;;;9.80;69.47;100243.59;5134625;27;20424;-39
2021/04/29 06:56:29;;;;;;;18.98;14.05;;;;;;;9.86;69.63;100242.66;5135251;27;20125;-39
2021/04/29 06:58:55;;;;;;;15.95;13.63;;;;;;;9.91;68.95;100240.06;5134587;27;20488;-39
2021/04/29 07:01:20;;;;;;;14.77;13.03;;;;;;;10.02;68.55;100246.47;5134623;27;20039;-39
2021/04/29 07:03:45;;;;;;;17.90;13.33;;;;;;;10.09;68.14;100240.91;5132998;27;20189;-39
2021/04/29 07:06:10;;;;;;;18.63;13.33;;;;;;;10.11;68.09;100238.81;5134774;27;20027;-39
2021/04/29 07:08:36;;;;;;;15.93;12.93;;;;;;;10.14;68.01;100244.53;5134688;27;20023;-39
2021/04/29 07:11:01;;;;;;;16.83;13.10;;;;;;;10.16;67.71;100255.09;5134688;27;20035;-39
2021/04/29 07:13:27;;;;;;;16.97;13.67;;;;;;;10.20;67.64;100248.97;5134396;27;20027;-39
2021/04/29 07:15:52;;;;;;;16.33;13.37;;;;;;;10.33;67.72;100250.56;5134698;27;20110;-39
2021/04/29 07:18:19;;;;;;;16.90;12.70;;;;;;;10.53;66.19;100248.22;5134246;27;20054;-39
2021/04/29 07:20:45;;;;;;;15.50;12.77;;;;;;;10.58;67.07;100255.59;5134571;27;20024;-39
2021/04/29 07:23:10;;;;;;;14.25;12.63;;;;;;;10.47;66.66;100254.59;5133990;27;20149;-39
2021/04/29 07:25:37;;;;;;;15.60;13.70;;;;;;;10.44;66.57;100255.09;5134603;27;20153;-39
2021/04/29 07:28:04;;;;;;;14.63;12.07;;;;;;;10.46;66.56;100258.38;5133778;27;20035;-39
2021/04/29 07:30:29;;;;;;;15.57;13.02;;;;;;;10.49;66.86;100260.59;5133812;27;20476;-39
2021/04/29 07:32:55;;;;;;;18.27;13.60;;;;;;;10.53;66.56;100264.44;5134237;27;20054;-39
2021/04/29 07:35:23;;;;;;;18.80;14.17;;;;;;;10.52;66.47;100262.78;5133378;27;20291;-39
2021/04/29 07:37:49;;;;;;;16.50;13.88;;;;;;;10.54;66.59;100263.38;5134877;27;20034;-39
2021/04/29 07:40:14;;;;;;;;;;;;;;;10.66;66.42;100265.19;5135012;27;20019;-39
2021/04/29 07:42:40;;;;;;;14.40;11.93;;;;;;;10.48;67.28;100258.94;5134617;27;19914;-39
2021/04/29 07:45:06;;;;;;;16.77;12.80;;;;;;;10.48;67.61;100263.53;5134106;27;20116;-39
2021/04/29 07:47:31;;;;;;;18.05;13.55;;;;;;;10.46;66.42;100269.19;5133923;27;20041;-39
2021/04/29 07:49:56;;;;;;;17.33;14.17;;;;;;;10.29;68.25;100266.44;5134068;27;20034;-39
2021/04/29 07:52:22;;;;;;;16.57;14.07;;;;;;;10.27;67.20;100265.06;5137962;27;20118;-39
2021/04/29 07:54:47;;;;;;;18.77;13.98;;;;;;;10.26;67.46;100263.44;5138334;27;20023;-39
2021/04/29 07:57:12;;;;;;;23.13;14.30;;;;;;;10.14;67.90;100271.53;5137805;27;20455;-39
2021/04/29 07:59:38;;;;;;;17.30;13.13;;;;;;;10.15;68.36;100275.06;5137902;27;20027;-39
2021/04/29 08:02:03;;;;;;;15.57;13.27;;;;;;;10.11;68.95;100271.22;5138114;27;20030;-39
2021/04/29 08:04:29;;;;;;;14.73;13.20;;;;;;;10.09;69.14;100262.53;5138309;27;20104;-39
2021/04/29 08:06:55;;;;;;;;;;;;;;;10.23;66.80;100275.50;5138672;27;20035;-39
2021/04/29 08:09:20;;;;;;;15.98;12.77;;;;;;;10.20;68.14;100277.84;5137667;27;20270;-39
2021/04/29 08:11:46;;;;;;;17.95;12.43;;;;;;;10.25;68.27;100280.72;5137619;27;20432;-39
2021/04/29 08:14:11;;;;;;;16.07;13.50;;;;;;;10.21;68.34;100280.34;5137299;27;20197;-39
2021/04/29 08:16:36;;;;;;;19.47;13.27;;;;;;;10.18;68.09;100282.69;5137262;27;20027;-39
2021/04/29 08:19:02;;;;;;;17.70;12.77;;;;;;;10.18;68.22;100283.50;5137905;27;20073;-40
2021/04/29 08:21:27;;;;;;;17.42;12.93;;;;;;;10.22;68.20;100291.97;5138055;27;20165;-40
2021/04/29 08:23:54;;;;;;;16.40;13.30;;;;;;;10.17;68.69;100291.88;5138261;27;20027;-40
2021/04/29 08:26:19;;;;;;;;;;;;;;;10.25;67.34;100297.75;5138617;27;20467;-40
2021/04/29 08:28:44;;;;;;;13.73;11.77;;;;;;;10.11;68.06;100303.66;5137351;27;19965;-40
2021/04/29 08:31:09;;;;;;;21.90;13.97;;;;;;;10.03;68.50;100300.25;5137942;27;20102;-40
2021/04/29 08:33:35;;;;;;;19.07;14.17;;;;;;;10.00;68.45;100303.44;5137246;27;20027;-40
2021/04/29 08:36:00;;;;;;;16.30;13.13;;;;;;;9.92;69.03;100306.53;5137266;27;20030;-40
2021/04/29 08:38:26;;;;;;;17.00;13.77;;;;;;;9.86;69.64;100306.63;5137114;27;20023;-40
2021/04/29 08:40:51;;;;;;;16.33;13.40;;;;;;;9.86;69.72;100310.19;5137736;27;20524;-40
2021/04/29 08:43:17;;;;;;;18.23;14.70;;;;;;;9.79;69.81;100312.19;5137069;27;20031;-40
2021/04/29 08:45:44;;;;;;;18.67;14.30;;;;;;;9.76;69.66;100321.59;5137363;27;20109;-40
2021/04/29 08:48:11;;;;;;;18.50;14.55;;;;;;;9.74;70.09;100320.19;5136931;27;20031;-40
2021/04/29 08:50:37;;;;;;;16.73;13.90;;;;;;;9.74;69.44;100320.19;5137785;27;20379;-40
2021/04/29 08:53:02;;;;;;;18.60;15.75;;;;;;;9.68;69.77;100326.53;5137145;27;20035;-40
2021/04/29 08:55:27;;;;;;;16.63;14.33;;;;;;;9.68;70.59;100327.34;5137174;27;20098;-40
2021/04/29 08:57:53;;;;;;;16.20;14.27;;;;;;;9.69;71.45;100333.56;5136438;27;20034;-40
2021/04/29 09:00:20;;;;;;;19.75;15.27;;;;;;;9.64;72.11;100328.06;5136512;27;20451;-40
2021/04/29 09:02:46;;;;;;;16.75;14.35;;;;;;;9.58;71.80;100329.03;5135624;27;20031;-40
2021/04/29 09:05:14;;;;;;;16.60;14.80;;;;;;;9.58;72.36;100332.53;5136489;27;20050;-40
2021/04/29 09:07:51;;;;;;;17.65;14.98;;;;;;;9.54;72.83;100334.88;5136580;27;20070;-40
2021/04/29 09:10:25;;;;;;;19.42;15.35;;;;;;;9.55;74.08;100336.50;5136615;27;20034;-40
2021/04/29 09:12:51;;;;;;;18.55;15.73;;;;;;;9.54;74.94;100337.59;5136812;27;20374;-40
2021/04/29 09:15:29;;;;;;;17.10;15.33;;;;;;;9.49;74.28;100340.16;5136495;27;20034;-40
2021/04/29 09:18:04;;;;;;;19.48;16.17;;;;;;;9.44;75.34;100347.34;5136395;27;20019;-40
2021/04/29 09:20:30;;;;;;;17.17;14.88;;;;;;;9.46;75.49;100342.50;5136049;27;20031;-40
2021/04/29 09:23:00;;;;;;;17.85;14.93;;;;;;;9.45;76.34;100347.09;5136021;27;20114;-40
2021/04/29 09:25:25;;;;;;;17.08;14.60;;;;;;;9.41;75.99;100345.91;5136569;27;20031;-40
2021/04/29 09:27:54;;;;;;;16.53;14.43;;;;;;;9.36;76.86;100353.06;5135921;27;20102;-40
2021/04/29 09:30:24;;;;;;;17.60;15.70;;;;;;;9.31;76.96;100359.19;5136407;27;20037;-40
2021/04/29 09:32:49;;;;;;;18.90;15.90;;;;;;;9.38;78.12;100354.50;5136145;27;20027;-40
2021/04/29 09:35:21;;;;;;;19.23;17.15;;;;;;;9.32;77.74;100358.13;5136116;27;20023;-40
2021/04/29 09:37:47;;;;;;;19.35;17.15;;;;;;;9.30;77.79;100360.22;5135928;27;20027;-40
2021/04/29 09:40:21;;;;;;;19.70;16.88;;;;;;;9.31;78.31;100369.16;5135959;27;20027;-40
2021/04/29 09:42:49;;;;;;;21.08;16.90;;;;;;;9.26;79.12;100364.44;5135635;27;20027;-40
2021/04/29 09:45:25;;;;;;;22.17;18.77;;;;;;;9.25;79.66;100365.50;5136126;27;20107;-40
2021/04/29 09:48:05;;;;;;;19.95;17.92;;;;;;;9.22;79.17;100374.06;5136140;27;20037;-40
2021/04/29 09:50:35;;;;;;;18.92;16.92;;;;;;;9.14;78.76;100377.13;5135209;27;20035;-40
2021/04/29 09:53:09;;;;;;;21.00;18.75;;;;;;;9.08;79.66;100376.19;5135433;27;20102;-40
2021/04/29 09:55:37;;;;;;;18.15;16.25;;;;;;;9.01;80.22;100378.16;5136221;27;20151;-40
2021/04/29 09:58:16;;;;;;;17.13;15.43;;;;;;;8.99;80.00;100380.28;5135406;27;20035;-40
2021/04/29 10:00:51;;;;;;;17.75;14.48;;;;;;;8.93;79.39;100387.41;5136468;27;20127;-40
2021/04/29 10:03:19;;;;;;;15.38;13.15;;;;;;;8.82;79.28;100387.38;5135837;27;20019;-40
2021/04/29 10:05:46;;;;;;;15.40;12.73;;;;;;;8.77;79.57;100401.53;5135924;27;20055;-40
2021/04/29 10:08:13;;;;;;;16.83;12.90;;;;;;;8.65;79.44;100398.00;5135686;27;20024;-40
2021/04/29 10:10:44;;;;;;;13.90;11.80;;;;;;;8.62;79.12;100410.03;5135744;27;20026;-40
2021/04/29 10:13:10;;;;;;;14.75;12.82;;;;;;;8.59;79.26;100409.66;5135317;27;20034;-40
2021/04/29 10:15:38;;;;;;;15.70;12.20;;;;;;;8.60;78.62;100422.13;5136018;27;20049;-39
2021/04/29 10:18:07;;;;;;;14.32;11.80;;;;;;;8.50;79.06;100426.19;5135149;27;20031;-40
2021/04/29 10:20:37;;;;;;;14.27;11.73;;;;;;;8.46;78.82;100438.44;5135782;27;20076;-40
2021/04/29 10:23:03;;;;;;;12.57;11.27;;;;;;;8.45;78.50;100439.50;5135328;27;20028;-40
2021/04/29 10:25:33;;;;;;;16.15;12.00;;;;;;;8.47;79.33;100445.47;5135465;27;20455;-40
2021/04/29 10:28:00;;;;;;;15.35;12.48;;;;;;;8.42;78.83;100444.53;5135294;27;20416;-40
2021/04/29 10:30:36;;;;;;;15.45;12.02;;;;;;;8.40;78.21;100450.13;5135609;27;20027;-40
2021/04/29 10:33:16;;;;;;;16.27;11.82;;;;;;;8.30;77.89;100455.22;5135292;27;20026;-40
2021/04/29 10:36:11;;;;;;;13.27;11.40;;;;;;;8.29;77.82;100464.31;5135578;27;20027;-40
2021/04/29 10:38:37;;;;;;;12.05;10.38;;;;;;;8.30;78.32;100471.38;5133189;27;20039;-40
2021/04/29 10:41:16;;;;;;;14.05;11.48;;;;;;;8.22;78.73;100466.28;5134861;27;20075;-40
2021/04/29 10:43:43;;;;;;;14.13;11.23;;;;;;;8.20;78.24;100471.06;5135134;27;20060;-40
2021/04/29 10:46:08;;;;;;;13.63;11.85;;;;;;;8.18;78.30;100478.53;5135057;27;20019;-39
2021/04/29 10:48:48;;;;;;;14.23;11.57;;;;;;;8.13;78.70;100470.31;5134454;27;20041;-40
2021/04/29 10:51:14;;;;;;;14.77;12.00;;;;;;;8.09;78.70;100480.69;5134984;27;20068;-40
2021/04/29 10:53:40;;;;;;;15.05;11.65;;;;;;;8.08;79.20;100480.94;5134828;27;20027;-40
2021/04/29 10:56:19;;;;;;;13.25;11.80;;;;;;;8.14;79.04;100485.41;5135188;27;20027;-40
2021/04/29 10:58:45;;;;;;;12.88;11.52;;;;;;;8.05;78.90;100479.50;5135290;27;20380;-40
2021/04/29 11:01:14;;;;;;;14.07;11.50;;;;;;;8.03;79.18;100497.75;5134866;27;20023;-40
2021/04/29 11:03:41;;;;;;;12.68;11.35;;;;;;;8.07;78.88;100503.53;5134395;27;20386;-40
2021/04/29 11:06:08;;;;;;;13.80;11.10;;;;;;;8.06;78.81;100508.09;5134910;27;20047;-40
2021/04/29 11:08:40;;;;;;;12.52;11.23;;;;;;;8.09;78.96;100518.41;5134174;27;20379;-40
2021/04/29 11:11:17;;;;;;;12.98;10.80;;;;;;;8.08;78.73;100521.31;5135008;27;20110;-39
2021/04/29 11:13:43;;;;;;;13.82;11.07;;;;;;;8.07;78.63;100523.19;5134676;27;20384;-40
2021/04/29 11:16:08;;;;;;;13.23;11.60;;;;;;;8.01;78.77;100526.78;5134201;27;20032;-39
2021/04/29 11:18:40;;;;;;;11.63;10.37;;;;;;;7.96;78.68;100534.72;5134217;27;20031;-40
2021/04/29 11:21:05;;;;;;;13.20;11.13;;;;;;;7.86;78.45;100524.44;5134821;27;20027;-40
2021/04/29 11:23:42;;;;;;;14.00;12.03;;;;;;;7.93;78.93;100535.97;5134256;27;20383;-40